Home > Products > Valid Products > TAF

000
FTUS45 KBYZ 290523
TAFBIL
TAF
KBIL 290523Z 2906/3006 21004KT P6SM FEW080 BKN150
     FM290900 27006KT P6SM SCT100
     FM291600 23010KT P6SM BKN100
     FM300000 22010KT P6SM VCTS BKN100CB=



000
FTUS45 KBYZ 290523
TAFMLS
TAF
KMLS 290523Z 2906/3006 15008KT 4SM HZ SCT100
     FM291000 16007KT 6SM HZ FEW100
     FM291800 17010KT P6SM BKN100=



000
FTUS45 KBYZ 290523
TAFMLS
TAF
KMLS 290523Z 2906/3006 15008KT 4SM HZ SCT100
     FM291000 16007KT 6SM HZ FEW100
     FM291800 17010KT P6SM BKN100=



000
FTUS45 KBYZ 290523
TAFSHR
TAF
KSHR 290523Z 2906/3006 27004KT P6SM SCT120
     FM290900 VRB04KT P6SM SKC
     FM291800 VRB04KT P6SM SCT100=



000
FTUS45 KBYZ 290523
TAFLVM
TAF
KLVM 290523Z 2906/3006 15006KT P6SM BKN100
     FM291500 15008KT P6SM SCT100
     FM291800 20017G23KT P6SM VCTS BKN080CB
     FM300300 25015KT P6SM SCT100=



000
FTUS45 KBYZ 290523
TAFLVM
TAF
KLVM 290523Z 2906/3006 15006KT P6SM BKN100
     FM291500 15008KT P6SM SCT100
     FM291800 20017G23KT P6SM VCTS BKN080CB
     FM300300 25015KT P6SM SCT100=



000
FTUS45 KBYZ 290523
TAFSHR
TAF
KSHR 290523Z 2906/3006 27004KT P6SM SCT120
     FM290900 VRB04KT P6SM SKC
     FM291800 VRB04KT P6SM SCT100=



000
FTUS45 KBYZ 290523
TAFBIL
TAF
KBIL 290523Z 2906/3006 21004KT P6SM FEW080 BKN150
     FM290900 27006KT P6SM SCT100
     FM291600 23010KT P6SM BKN100
     FM300000 22010KT P6SM VCTS BKN100CB=



000
FTUS45 KBYZ 290523
TAFLVM
TAF
KLVM 290523Z 2906/3006 15006KT P6SM BKN100
     FM291500 15008KT P6SM SCT100
     FM291800 20017G23KT P6SM VCTS BKN080CB
     FM300300 25015KT P6SM SCT100=



000
FTUS45 KBYZ 290523
TAFMLS
TAF
KMLS 290523Z 2906/3006 15008KT 4SM HZ SCT100
     FM291000 16007KT 6SM HZ FEW100
     FM291800 17010KT P6SM BKN100=



000
FTUS45 KBYZ 290523
TAFBIL
TAF
KBIL 290523Z 2906/3006 21004KT P6SM FEW080 BKN150
     FM290900 27006KT P6SM SCT100
     FM291600 23010KT P6SM BKN100
     FM300000 22010KT P6SM VCTS BKN100CB=



000
FTUS45 KBYZ 290523
TAFMLS
TAF
KMLS 290523Z 2906/3006 15008KT 4SM HZ SCT100
     FM291000 16007KT 6SM HZ FEW100
     FM291800 17010KT P6SM BKN100=



000
FTUS45 KBYZ 290523
TAFBIL
TAF
KBIL 290523Z 2906/3006 21004KT P6SM FEW080 BKN150
     FM290900 27006KT P6SM SCT100
     FM291600 23010KT P6SM BKN100
     FM300000 22010KT P6SM VCTS BKN100CB=



000
FTUS45 KBYZ 290523
TAFLVM
TAF
KLVM 290523Z 2906/3006 15006KT P6SM BKN100
     FM291500 15008KT P6SM SCT100
     FM291800 20017G23KT P6SM VCTS BKN080CB
     FM300300 25015KT P6SM SCT100=



000
FTUS45 KBYZ 290523
TAFSHR
TAF
KSHR 290523Z 2906/3006 27004KT P6SM SCT120
     FM290900 VRB04KT P6SM SKC
     FM291800 VRB04KT P6SM SCT100=



000
FTUS45 KBYZ 290523
TAFSHR
TAF
KSHR 290523Z 2906/3006 27004KT P6SM SCT120
     FM290900 VRB04KT P6SM SKC
     FM291800 VRB04KT P6SM SCT100=



000
FTUS45 KBYZ 282320
TAFLVM
TAF
KLVM 282320Z 2900/2924 26008KT 5SM HZ FEW050 SCT150=



000
FTUS45 KBYZ 282320
TAFSHR
TAF
KSHR 282320Z 2900/2924 VRB04KT 5SM HZ FEW120 SCT180=



000
FTUS45 KBYZ 282320
TAFSHR
TAF
KSHR 282320Z 2900/2924 VRB04KT 5SM HZ FEW120 SCT180=



000
FTUS45 KBYZ 282320
TAFMLS
TAF
KMLS 282320Z 2900/2924 23010KT 3SM HZ BKN030 OVC040
     FM290330 15007KT 5SM HZ FEW050 SCT150=



000
FTUS45 KBYZ 282320
TAFBIL
TAF
KBIL 282320Z 2900/2924 24007KT 6SM HZ FEW050 SCT180=



000
FTUS45 KBYZ 282320
TAFMLS
TAF
KMLS 282320Z 2900/2924 23010KT 3SM HZ BKN030 OVC040
     FM290330 15007KT 5SM HZ FEW050 SCT150=



000
FTUS45 KBYZ 282320
TAFLVM
TAF
KLVM 282320Z 2900/2924 26008KT 5SM HZ FEW050 SCT150=



000
FTUS45 KBYZ 282320
TAFSHR
TAF
KSHR 282320Z 2900/2924 VRB04KT 5SM HZ FEW120 SCT180=



000
FTUS45 KBYZ 282320
TAFLVM
TAF
KLVM 282320Z 2900/2924 26008KT 5SM HZ FEW050 SCT150=



000
FTUS45 KBYZ 282320
TAFSHR
TAF
KSHR 282320Z 2900/2924 VRB04KT 5SM HZ FEW120 SCT180=



000
FTUS45 KBYZ 282320
TAFBIL
TAF
KBIL 282320Z 2900/2924 24007KT 6SM HZ FEW050 SCT180=



000
FTUS45 KBYZ 282320
TAFMLS
TAF
KMLS 282320Z 2900/2924 23010KT 3SM HZ BKN030 OVC040
     FM290330 15007KT 5SM HZ FEW050 SCT150=



000
FTUS45 KBYZ 282320
TAFBIL
TAF
KBIL 282320Z 2900/2924 24007KT 6SM HZ FEW050 SCT180=



000
FTUS45 KBYZ 282320
TAFBIL
TAF
KBIL 282320Z 2900/2924 24007KT 6SM HZ FEW050 SCT180=



000
FTUS45 KBYZ 282320
TAFLVM
TAF
KLVM 282320Z 2900/2924 26008KT 5SM HZ FEW050 SCT150=



000
FTUS45 KBYZ 282320
TAFMLS
TAF
KMLS 282320Z 2900/2924 23010KT 3SM HZ BKN030 OVC040
     FM290330 15007KT 5SM HZ FEW050 SCT150=



000
FTUS45 KBYZ 281912 AAA
TAFMLS
TAF AMD
KMLS 281912Z 2819/2918 29010KT 3SM HZ BKN030
     FM290200 15008KT P6SM FEW100 BKN150=



000
FTUS45 KBYZ 281912 AAA
TAFMLS
TAF AMD
KMLS 281912Z 2819/2918 29010KT 3SM HZ BKN030
     FM290200 15008KT P6SM FEW100 BKN150=



000
FTUS45 KBYZ 281912 AAA
TAFMLS
TAF AMD
KMLS 281912Z 2819/2918 29010KT 3SM HZ BKN030
     FM290200 15008KT P6SM FEW100 BKN150=



000
FTUS45 KBYZ 281720
TAFLVM
TAF
KLVM 281720Z 2818/2918 25012KT P6SM SCT100 BKN150=



000
FTUS45 KBYZ 281720
TAFMLS
TAF
KMLS 281720Z 2818/2918 29010KT 4SM HZ SCT100 BKN150
     FM290200 15008KT P6SM FEW100 BKN150=



000
FTUS45 KBYZ 281720
TAFLVM
TAF
KLVM 281720Z 2818/2918 25012KT P6SM SCT100 BKN150=



000
FTUS45 KBYZ 281720
TAFMLS
TAF
KMLS 281720Z 2818/2918 29010KT 4SM HZ SCT100 BKN150
     FM290200 15008KT P6SM FEW100 BKN150=



000
FTUS45 KBYZ 281720
TAFBIL
TAF
KBIL 281720Z 2818/2918 24012KT P6SM SCT100 BKN150=



000
FTUS45 KBYZ 281720
TAFBIL
TAF
KBIL 281720Z 2818/2918 24012KT P6SM SCT100 BKN150=



000
FTUS45 KBYZ 281720
TAFMLS
TAF
KMLS 281720Z 2818/2918 29010KT 4SM HZ SCT100 BKN150
     FM290200 15008KT P6SM FEW100 BKN150=



000
FTUS45 KBYZ 281720
TAFMLS
TAF
KMLS 281720Z 2818/2918 29010KT 4SM HZ SCT100 BKN150
     FM290200 15008KT P6SM FEW100 BKN150=



000
FTUS45 KBYZ 281720
TAFLVM
TAF
KLVM 281720Z 2818/2918 25012KT P6SM SCT100 BKN150=



000
FTUS45 KBYZ 281720
TAFSHR
TAF
KSHR 281720Z 2818/2918 VRB04KT P6SM SCT100 BKN150=



000
FTUS45 KBYZ 281720
TAFLVM
TAF
KLVM 281720Z 2818/2918 25012KT P6SM SCT100 BKN150=



000
FTUS45 KBYZ 281720
TAFBIL
TAF
KBIL 281720Z 2818/2918 24012KT P6SM SCT100 BKN150=



000
FTUS45 KBYZ 281720
TAFSHR
TAF
KSHR 281720Z 2818/2918 VRB04KT P6SM SCT100 BKN150=



000
FTUS45 KBYZ 281720
TAFBIL
TAF
KBIL 281720Z 2818/2918 24012KT P6SM SCT100 BKN150=



000
FTUS45 KBYZ 281720
TAFSHR
TAF
KSHR 281720Z 2818/2918 VRB04KT P6SM SCT100 BKN150=



000
FTUS45 KBYZ 281720
TAFSHR
TAF
KSHR 281720Z 2818/2918 VRB04KT P6SM SCT100 BKN150=



000
FTUS45 KBYZ 281136
TAFSHR
TAF
KSHR 281136Z 2812/2912 21003KT P6SM SKC
     FM281600 VRB04KT P6SM FEW100=



000
FTUS45 KBYZ 281136
TAFBIL
TAF
KBIL 281136Z 2812/2912 24016KT P6SM SCT120
     FM281800 22010KT P6SM SCT100
     FM290300 24007KT P6SM FEW100=



000
FTUS45 KBYZ 281136
TAFMLS
TAF
KMLS 281136Z 2812/2912 16004KT P6SM SKC
     FM281800 29008KT P6SM SCT120
     FM290200 15008KT P6SM FEW100=



000
FTUS45 KBYZ 281136
TAFLVM
TAF
KLVM 281136Z 2812/2912 33013KT P6SM FEW150
     FM281600 27012KT P6SM SCT100
     FM290300 23009KT P6SM BKN100=



000
FTUS45 KBYZ 281136
TAFMLS
TAF
KMLS 281136Z 2812/2912 16004KT P6SM SKC
     FM281800 29008KT P6SM SCT120
     FM290200 15008KT P6SM FEW100=



000
FTUS45 KBYZ 281136
TAFLVM
TAF
KLVM 281136Z 2812/2912 33013KT P6SM FEW150
     FM281600 27012KT P6SM SCT100
     FM290300 23009KT P6SM BKN100=



000
FTUS45 KBYZ 281136
TAFLVM
TAF
KLVM 281136Z 2812/2912 33013KT P6SM FEW150
     FM281600 27012KT P6SM SCT100
     FM290300 23009KT P6SM BKN100=



000
FTUS45 KBYZ 281136
TAFSHR
TAF
KSHR 281136Z 2812/2912 21003KT P6SM SKC
     FM281600 VRB04KT P6SM FEW100=



000
FTUS45 KBYZ 281136
TAFBIL
TAF
KBIL 281136Z 2812/2912 24016KT P6SM SCT120
     FM281800 22010KT P6SM SCT100
     FM290300 24007KT P6SM FEW100=



000
FTUS45 KBYZ 281136
TAFMLS
TAF
KMLS 281136Z 2812/2912 16004KT P6SM SKC
     FM281800 29008KT P6SM SCT120
     FM290200 15008KT P6SM FEW100=



000
FTUS45 KBYZ 281136
TAFLVM
TAF
KLVM 281136Z 2812/2912 33013KT P6SM FEW150
     FM281600 27012KT P6SM SCT100
     FM290300 23009KT P6SM BKN100=



000
FTUS45 KBYZ 281136
TAFBIL
TAF
KBIL 281136Z 2812/2912 24016KT P6SM SCT120
     FM281800 22010KT P6SM SCT100
     FM290300 24007KT P6SM FEW100=



000
FTUS45 KBYZ 281136
TAFSHR
TAF
KSHR 281136Z 2812/2912 21003KT P6SM SKC
     FM281600 VRB04KT P6SM FEW100=



000
FTUS45 KBYZ 281136
TAFBIL
TAF
KBIL 281136Z 2812/2912 24016KT P6SM SCT120
     FM281800 22010KT P6SM SCT100
     FM290300 24007KT P6SM FEW100=



000
FTUS45 KBYZ 281136
TAFSHR
TAF
KSHR 281136Z 2812/2912 21003KT P6SM SKC
     FM281600 VRB04KT P6SM FEW100=



000
FTUS45 KBYZ 281136
TAFMLS
TAF
KMLS 281136Z 2812/2912 16004KT P6SM SKC
     FM281800 29008KT P6SM SCT120
     FM290200 15008KT P6SM FEW100=



000
FTUS45 KBYZ 280529
TAFLVM
TAF
KLVM 280529Z 2806/2906 25017KT P6SM VCSH BKN080
     FM280800 28010KT P6SM FEW080
     FM281600 27012KT P6SM SCT100=



000
FTUS45 KBYZ 280529
TAFSHR
TAF
KSHR 280529Z 2806/2906 25012KT P6SM BKN120
     FM280900 VRB04KT P6SM SCT120
     FM281600 VRB04KT P6SM SKC=



000
FTUS45 KBYZ 280529
TAFBIL
TAF
KBIL 280529Z 2806/2906 24014KT 6SM HZ BKN150
     FM280800 24012KT 6SM HZ FEW100
     FM281800 19007KT P6SM FEW080=



000
FTUS45 KBYZ 280529
TAFMLS
TAF
KMLS 280529Z 2806/2906 26005KT P6SM BKN150
     FM280900 23007KT P6SM SCT120
     FM281200 25007KT P6SM FEW100
     FM281800 29008KT P6SM SKC=



000
FTUS45 KBYZ 280529
TAFSHR
TAF
KSHR 280529Z 2806/2906 25012KT P6SM BKN120
     FM280900 VRB04KT P6SM SCT120
     FM281600 VRB04KT P6SM SKC=



000
FTUS45 KBYZ 280529
TAFLVM
TAF
KLVM 280529Z 2806/2906 25017KT P6SM VCSH BKN080
     FM280800 28010KT P6SM FEW080
     FM281600 27012KT P6SM SCT100=



000
FTUS45 KBYZ 280529
TAFBIL
TAF
KBIL 280529Z 2806/2906 24014KT 6SM HZ BKN150
     FM280800 24012KT 6SM HZ FEW100
     FM281800 19007KT P6SM FEW080=



000
FTUS45 KBYZ 280529
TAFMLS
TAF
KMLS 280529Z 2806/2906 26005KT P6SM BKN150
     FM280900 23007KT P6SM SCT120
     FM281200 25007KT P6SM FEW100
     FM281800 29008KT P6SM SKC=



000
FTUS45 KBYZ 280529
TAFMLS
TAF
KMLS 280529Z 2806/2906 26005KT P6SM BKN150
     FM280900 23007KT P6SM SCT120
     FM281200 25007KT P6SM FEW100
     FM281800 29008KT P6SM SKC=



000
FTUS45 KBYZ 280529
TAFSHR
TAF
KSHR 280529Z 2806/2906 25012KT P6SM BKN120
     FM280900 VRB04KT P6SM SCT120
     FM281600 VRB04KT P6SM SKC=



000
FTUS45 KBYZ 280529
TAFLVM
TAF
KLVM 280529Z 2806/2906 25017KT P6SM VCSH BKN080
     FM280800 28010KT P6SM FEW080
     FM281600 27012KT P6SM SCT100=



000
FTUS45 KBYZ 280529
TAFBIL
TAF
KBIL 280529Z 2806/2906 24014KT 6SM HZ BKN150
     FM280800 24012KT 6SM HZ FEW100
     FM281800 19007KT P6SM FEW080=



000
FTUS45 KBYZ 280529
TAFSHR
TAF
KSHR 280529Z 2806/2906 25012KT P6SM BKN120
     FM280900 VRB04KT P6SM SCT120
     FM281600 VRB04KT P6SM SKC=



000
FTUS45 KBYZ 280529
TAFLVM
TAF
KLVM 280529Z 2806/2906 25017KT P6SM VCSH BKN080
     FM280800 28010KT P6SM FEW080
     FM281600 27012KT P6SM SCT100=



000
FTUS45 KBYZ 280529
TAFMLS
TAF
KMLS 280529Z 2806/2906 26005KT P6SM BKN150
     FM280900 23007KT P6SM SCT120
     FM281200 25007KT P6SM FEW100
     FM281800 29008KT P6SM SKC=



000
FTUS45 KBYZ 280529
TAFBIL
TAF
KBIL 280529Z 2806/2906 24014KT 6SM HZ BKN150
     FM280800 24012KT 6SM HZ FEW100
     FM281800 19007KT P6SM FEW080=



000
FTUS45 KBYZ 280156 AAB
TAFLVM
TAF AMD
KLVM 280156Z 2802/2824 VRB06KT P6SM VCSH SCT070
      TEMPO 2802/2804 VRB20G30KT TSRA SCT050CB
     FM280800 VRB06KT P6SM SCT070=



000
FTUS45 KBYZ 280148 AAB
TAFBIL
TAF AMD
KBIL 280148Z 2802/2824 24010KT P6SM SCT100
      TEMPO 2802/2804 22013G25KT=



000
FTUS45 KBYZ 280148 AAB
TAFBIL
TAF AMD
KBIL 280148Z 2802/2824 24010KT P6SM SCT100
      TEMPO 2802/2804 22013G25KT=



000
FTUS45 KBYZ 280148 AAB
TAFBIL
TAF AMD
KBIL 280148Z 2802/2824 24010KT P6SM SCT100
      TEMPO 2802/2804 22013G25KT=



000
FTUS45 KBYZ 280148 AAB
TAFBIL
TAF AMD
KBIL 280148Z 2802/2824 24010KT P6SM SCT100
      TEMPO 2802/2804 22013G25KT=



000
FTUS45 KBYZ 280007 AAA
TAFSHR
TAF AMD
KSHR 280007Z 2800/2824 33012KT P6SM SKC
      TEMPO 2800/2801 31020G25KT
     FM280300 25011KT P6SM FEW130
     FM281000 VRB06KT P6SM SKC=



000
FTUS45 KBYZ 280007 AAA
TAFSHR
TAF AMD
KSHR 280007Z 2800/2824 33012KT P6SM SKC
      TEMPO 2800/2801 31020G25KT
     FM280300 25011KT P6SM FEW130
     FM281000 VRB06KT P6SM SKC=



000
FTUS45 KBYZ 280005 AAA
TAFLVM
TAF AMD
KLVM 280005Z 2800/2824 23012G15KT 5SM HZ SKC
     FM280200 VRB06KT P6SM VCSH SCT070
     FM280800 VRB06KT P6SM SCT070=



000
FTUS45 KBYZ 280004 AAA
TAFBIL
TAF AMD
KBIL 280004Z 2800/2824 27011KT P6SM SCT100
      TEMPO 2800/2801 22015G20KT=



000
FTUS45 KBYZ 272320
TAFMLS
TAF
KMLS 272320Z 2800/2824 30011KT P6SM BKN130
     FM280400 VRB06KT P6SM FEW130
     FM281800 29011KT P6SM SKC=



000
FTUS45 KBYZ 272320
TAFLVM
TAF
KLVM 272320Z 2800/2824 23012G15KT P6SM SKC
     FM280200 VRB06KT P6SM VCSH SCT070
     FM280800 VRB06KT P6SM SCT070=



000
FTUS45 KBYZ 272320
TAFBIL
TAF
KBIL 272320Z 2800/2824 27011KT P6SM SCT100=



000
FTUS45 KBYZ 272320
TAFSHR
TAF
KSHR 272320Z 2800/2824 33012KT P6SM SKC
     FM280300 25011KT P6SM FEW130
     FM281000 VRB06KT P6SM SKC=



000
FTUS45 KBYZ 272320
TAFMLS
TAF
KMLS 272320Z 2800/2824 30011KT P6SM BKN130
     FM280400 VRB06KT P6SM FEW130
     FM281800 29011KT P6SM SKC=



000
FTUS45 KBYZ 272320
TAFLVM
TAF
KLVM 272320Z 2800/2824 23012G15KT P6SM SKC
     FM280200 VRB06KT P6SM VCSH SCT070
     FM280800 VRB06KT P6SM SCT070=



000
FTUS45 KBYZ 272320
TAFSHR
TAF
KSHR 272320Z 2800/2824 33012KT P6SM SKC
     FM280300 25011KT P6SM FEW130
     FM281000 VRB06KT P6SM SKC=



000
FTUS45 KBYZ 272320
TAFMLS
TAF
KMLS 272320Z 2800/2824 30011KT P6SM BKN130
     FM280400 VRB06KT P6SM FEW130
     FM281800 29011KT P6SM SKC=



000
FTUS45 KBYZ 272320
TAFSHR
TAF
KSHR 272320Z 2800/2824 33012KT P6SM SKC
     FM280300 25011KT P6SM FEW130
     FM281000 VRB06KT P6SM SKC=



000
FTUS45 KBYZ 272320
TAFBIL
TAF
KBIL 272320Z 2800/2824 27011KT P6SM SCT100=



000
FTUS45 KBYZ 272320
TAFLVM
TAF
KLVM 272320Z 2800/2824 23012G15KT P6SM SKC
     FM280200 VRB06KT P6SM VCSH SCT070
     FM280800 VRB06KT P6SM SCT070=



000
FTUS45 KBYZ 272320
TAFBIL
TAF
KBIL 272320Z 2800/2824 27011KT P6SM SCT100=



000
FTUS45 KBYZ 272203 AAA
TAFSHR
TAF AMD
KSHR 272203Z 2722/2818 27012KT P6SM VCTS SCT090CB SCT180
     FM280300 VRB06KT P6SM FEW100=



000
FTUS45 KBYZ 272203 AAA
TAFSHR
TAF AMD
KSHR 272203Z 2722/2818 27012KT P6SM VCTS SCT090CB SCT180
     FM280300 VRB06KT P6SM FEW100=



000
FTUS45 KBYZ 272203 AAA
TAFSHR
TAF AMD
KSHR 272203Z 2722/2818 27012KT P6SM VCTS SCT090CB SCT180
     FM280300 VRB06KT P6SM FEW100=



000
FTUS45 KBYZ 272203 AAA
TAFSHR
TAF AMD
KSHR 272203Z 2722/2818 27012KT P6SM VCTS SCT090CB SCT180
     FM280300 VRB06KT P6SM FEW100=



000
FTUS45 KBYZ 271805 AAA
TAFBIL
TAF AMD
KBIL 271805Z 2718/2818 23012G19KT P6SM SCT200
     FM272100 26011KT P6SM VCTS SCT100CB BKN130
     FM280000 VRB06KT P6SM VCSH BKN100
     FM280600 23008KT P6SM SCT100=



000
FTUS45 KBYZ 271805 AAA
TAFBIL
TAF AMD
KBIL 271805Z 2718/2818 23012G19KT P6SM SCT200
     FM272100 26011KT P6SM VCTS SCT100CB BKN130
     FM280000 VRB06KT P6SM VCSH BKN100
     FM280600 23008KT P6SM SCT100=



000
FTUS45 KBYZ 271725
TAFBIL
TAF
KBIL 271725Z 2718/2818 23012KT P6SM SCT200
     FM272100 26011KT P6SM VCTS SCT100CB BKN130
     FM280000 VRB06KT P6SM VCSH BKN100
     FM280600 23008KT P6SM SCT100=



000
FTUS45 KBYZ 271725
TAFMLS
TAF
KMLS 271725Z 2718/2818 VRB06KT P6SM FEW200=



000
FTUS45 KBYZ 271725
TAFSHR
TAF
KSHR 271725Z 2718/2818 35009KT P6SM SCT200
     FM272200 27011KT P6SM VCTS SCT090CB SCT180
     FM280300 VRB06KT P6SM FEW100=



000
FTUS45 KBYZ 271725
TAFBIL
TAF
KBIL 271725Z 2718/2818 23012KT P6SM SCT200
     FM272100 26011KT P6SM VCTS SCT100CB BKN130
     FM280000 VRB06KT P6SM VCSH BKN100
     FM280600 23008KT P6SM SCT100=



000
FTUS45 KBYZ 271725
TAFMLS
TAF
KMLS 271725Z 2718/2818 VRB06KT P6SM FEW200=



000
FTUS45 KBYZ 271725
TAFLVM
TAF
KLVM 271725Z 2718/2818 27011G15KT P6SM VCTS SCT080CB BKN130
     FM280600 VRB06KT P6SM FEW080=



000
FTUS45 KBYZ 271725
TAFLVM
TAF
KLVM 271725Z 2718/2818 27011G15KT P6SM VCTS SCT080CB BKN130
     FM280600 VRB06KT P6SM FEW080=



000
FTUS45 KBYZ 271725
TAFBIL
TAF
KBIL 271725Z 2718/2818 23012KT P6SM SCT200
     FM272100 26011KT P6SM VCTS SCT100CB BKN130
     FM280000 VRB06KT P6SM VCSH BKN100
     FM280600 23008KT P6SM SCT100=



000
FTUS45 KBYZ 271725
TAFMLS
TAF
KMLS 271725Z 2718/2818 VRB06KT P6SM FEW200=



000
FTUS45 KBYZ 271725
TAFLVM
TAF
KLVM 271725Z 2718/2818 27011G15KT P6SM VCTS SCT080CB BKN130
     FM280600 VRB06KT P6SM FEW080=



000
FTUS45 KBYZ 271725
TAFBIL
TAF
KBIL 271725Z 2718/2818 23012KT P6SM SCT200
     FM272100 26011KT P6SM VCTS SCT100CB BKN130
     FM280000 VRB06KT P6SM VCSH BKN100
     FM280600 23008KT P6SM SCT100=



000
FTUS45 KBYZ 271725
TAFSHR
TAF
KSHR 271725Z 2718/2818 35009KT P6SM SCT200
     FM272200 27011KT P6SM VCTS SCT090CB SCT180
     FM280300 VRB06KT P6SM FEW100=



000
FTUS45 KBYZ 271725
TAFSHR
TAF
KSHR 271725Z 2718/2818 35009KT P6SM SCT200
     FM272200 27011KT P6SM VCTS SCT090CB SCT180
     FM280300 VRB06KT P6SM FEW100=



000
FTUS45 KBYZ 271725
TAFLVM
TAF
KLVM 271725Z 2718/2818 27011G15KT P6SM VCTS SCT080CB BKN130
     FM280600 VRB06KT P6SM FEW080=



000
FTUS45 KBYZ 271725
TAFMLS
TAF
KMLS 271725Z 2718/2818 VRB06KT P6SM FEW200=



000
FTUS45 KBYZ 271725
TAFSHR
TAF
KSHR 271725Z 2718/2818 35009KT P6SM SCT200
     FM272200 27011KT P6SM VCTS SCT090CB SCT180
     FM280300 VRB06KT P6SM FEW100=



000
FTUS45 KBYZ 271619 AAA
TAFLVM
TAF AMD
KLVM 271619Z 2716/2812 26011G15KT P6SM FEW080
     FM271800 25012KT P6SM VCTS SCT070CB BKN100
     FM280300 25010KT P6SM BKN100
     FM280600 27010KT P6SM FEW080=



000
FTUS45 KBYZ 271619 AAA
TAFLVM
TAF AMD
KLVM 271619Z 2716/2812 26011G15KT P6SM FEW080
     FM271800 25012KT P6SM VCTS SCT070CB BKN100
     FM280300 25010KT P6SM BKN100
     FM280600 27010KT P6SM FEW080=



000
FTUS45 KBYZ 271619 AAA
TAFLVM
TAF AMD
KLVM 271619Z 2716/2812 26011G15KT P6SM FEW080
     FM271800 25012KT P6SM VCTS SCT070CB BKN100
     FM280300 25010KT P6SM BKN100
     FM280600 27010KT P6SM FEW080=



000
FTUS45 KBYZ 271136
TAFSHR
TAF
KSHR 271136Z 2712/2812 15012G16KT P6SM VCSH OVC090
     FM271400 33009KT P6SM SCT070 BKN100
     FM271800 33009KT P6SM SCT100
     FM272100 32010KT P6SM VCTS SCT070CB BKN100
     FM280600 VRB04KT P6SM SCT100=



000
FTUS45 KBYZ 271136
TAFBIL
TAF
KBIL 271136Z 2712/2812 24020KT P6SM SCT100
     FM271500 25008KT P6SM FEW100
     FM272100 29010KT P6SM VCTS BKN080CB
     FM280500 25011KT P6SM SCT100=



000
FTUS45 KBYZ 271136
TAFLVM
TAF
KLVM 271136Z 2712/2812 26010KT P6SM SKC
     FM271400 26011KT P6SM FEW080
     FM271800 25012KT P6SM VCTS SCT070CB BKN100
     FM280300 25010KT P6SM BKN100
     FM280600 27010KT P6SM FEW080=



000
FTUS45 KBYZ 271136
TAFMLS
TAF
KMLS 271136Z 2712/2812 03007KT P6SM BKN100 OVC150
     FM271400 18008KT P6SM BKN100
     FM272200 05008KT P6SM VCTS BKN100CB
     FM280500 20008KT P6SM SCT100=



000
FTUS45 KBYZ 271136
TAFLVM
TAF
KLVM 271136Z 2712/2812 26010KT P6SM SKC
     FM271400 26011KT P6SM FEW080
     FM271800 25012KT P6SM VCTS SCT070CB BKN100
     FM280300 25010KT P6SM BKN100
     FM280600 27010KT P6SM FEW080=



000
FTUS45 KBYZ 271136
TAFSHR
TAF
KSHR 271136Z 2712/2812 15012G16KT P6SM VCSH OVC090
     FM271400 33009KT P6SM SCT070 BKN100
     FM271800 33009KT P6SM SCT100
     FM272100 32010KT P6SM VCTS SCT070CB BKN100
     FM280600 VRB04KT P6SM SCT100=



000
FTUS45 KBYZ 271136
TAFBIL
TAF
KBIL 271136Z 2712/2812 24020KT P6SM SCT100
     FM271500 25008KT P6SM FEW100
     FM272100 29010KT P6SM VCTS BKN080CB
     FM280500 25011KT P6SM SCT100=



000
FTUS45 KBYZ 271136
TAFMLS
TAF
KMLS 271136Z 2712/2812 03007KT P6SM BKN100 OVC150
     FM271400 18008KT P6SM BKN100
     FM272200 05008KT P6SM VCTS BKN100CB
     FM280500 20008KT P6SM SCT100=



000
FTUS45 KBYZ 271136
TAFMLS
TAF
KMLS 271136Z 2712/2812 03007KT P6SM BKN100 OVC150
     FM271400 18008KT P6SM BKN100
     FM272200 05008KT P6SM VCTS BKN100CB
     FM280500 20008KT P6SM SCT100=



000
FTUS45 KBYZ 271136
TAFSHR
TAF
KSHR 271136Z 2712/2812 15012G16KT P6SM VCSH OVC090
     FM271400 33009KT P6SM SCT070 BKN100
     FM271800 33009KT P6SM SCT100
     FM272100 32010KT P6SM VCTS SCT070CB BKN100
     FM280600 VRB04KT P6SM SCT100=



000
FTUS45 KBYZ 271136
TAFBIL
TAF
KBIL 271136Z 2712/2812 24020KT P6SM SCT100
     FM271500 25008KT P6SM FEW100
     FM272100 29010KT P6SM VCTS BKN080CB
     FM280500 25011KT P6SM SCT100=



000
FTUS45 KBYZ 271136
TAFLVM
TAF
KLVM 271136Z 2712/2812 26010KT P6SM SKC
     FM271400 26011KT P6SM FEW080
     FM271800 25012KT P6SM VCTS SCT070CB BKN100
     FM280300 25010KT P6SM BKN100
     FM280600 27010KT P6SM FEW080=



000
FTUS45 KBYZ 271136
TAFLVM
TAF
KLVM 271136Z 2712/2812 26010KT P6SM SKC
     FM271400 26011KT P6SM FEW080
     FM271800 25012KT P6SM VCTS SCT070CB BKN100
     FM280300 25010KT P6SM BKN100
     FM280600 27010KT P6SM FEW080=



000
FTUS45 KBYZ 271136
TAFBIL
TAF
KBIL 271136Z 2712/2812 24020KT P6SM SCT100
     FM271500 25008KT P6SM FEW100
     FM272100 29010KT P6SM VCTS BKN080CB
     FM280500 25011KT P6SM SCT100=



000
FTUS45 KBYZ 271136
TAFMLS
TAF
KMLS 271136Z 2712/2812 03007KT P6SM BKN100 OVC150
     FM271400 18008KT P6SM BKN100
     FM272200 05008KT P6SM VCTS BKN100CB
     FM280500 20008KT P6SM SCT100=



000
FTUS45 KBYZ 271136
TAFSHR
TAF
KSHR 271136Z 2712/2812 15012G16KT P6SM VCSH OVC090
     FM271400 33009KT P6SM SCT070 BKN100
     FM271800 33009KT P6SM SCT100
     FM272100 32010KT P6SM VCTS SCT070CB BKN100
     FM280600 VRB04KT P6SM SCT100=



000
FTUS45 KBYZ 270523
TAFBIL
TAF
KBIL 270523Z 2706/2806 24013KT P6SM BKN150
     FM270800 25010KT P6SM SCT100
     FM271500 25008KT P6SM SCT100
     FM272100 29010KT P6SM VCTS BKN100CB=



000
FTUS45 KBYZ 270523
TAFMLS
TAF
KMLS 270523Z 2706/2806 05009KT P6SM BKN120
     FM270800 10008KT P6SM BKN100
     FM271500 18008KT P6SM SCT100
     FM272200 05008KT P6SM VCTS BKN100CB=



000
FTUS45 KBYZ 270523
TAFLVM
TAF
KLVM 270523Z 2706/2806 21015G26KT P6SM BKN100
     FM270800 27010KT P6SM SCT100
     FM272000 25012KT P6SM VCTS SCT070CB BKN100
     FM280300 25010KT P6SM BKN100=



000
FTUS45 KBYZ 270523
TAFSHR
TAF
KSHR 270523Z 2706/2806 26010KT P6SM BKN120
     FM270900 28007KT P6SM SCT100
     FM272100 32010KT P6SM VCTS SCT070CB BKN100=



000
FTUS45 KBYZ 270523
TAFMLS
TAF
KMLS 270523Z 2706/2806 05009KT P6SM BKN120
     FM270800 10008KT P6SM BKN100
     FM271500 18008KT P6SM SCT100
     FM272200 05008KT P6SM VCTS BKN100CB=



000
FTUS45 KBYZ 270523
TAFBIL
TAF
KBIL 270523Z 2706/2806 24013KT P6SM BKN150
     FM270800 25010KT P6SM SCT100
     FM271500 25008KT P6SM SCT100
     FM272100 29010KT P6SM VCTS BKN100CB=



000
FTUS45 KBYZ 270523
TAFSHR
TAF
KSHR 270523Z 2706/2806 26010KT P6SM BKN120
     FM270900 28007KT P6SM SCT100
     FM272100 32010KT P6SM VCTS SCT070CB BKN100=



000
FTUS45 KBYZ 270523
TAFLVM
TAF
KLVM 270523Z 2706/2806 21015G26KT P6SM BKN100
     FM270800 27010KT P6SM SCT100
     FM272000 25012KT P6SM VCTS SCT070CB BKN100
     FM280300 25010KT P6SM BKN100=



000
FTUS45 KBYZ 270523
TAFMLS
TAF
KMLS 270523Z 2706/2806 05009KT P6SM BKN120
     FM270800 10008KT P6SM BKN100
     FM271500 18008KT P6SM SCT100
     FM272200 05008KT P6SM VCTS BKN100CB=



000
FTUS45 KBYZ 270523
TAFBIL
TAF
KBIL 270523Z 2706/2806 24013KT P6SM BKN150
     FM270800 25010KT P6SM SCT100
     FM271500 25008KT P6SM SCT100
     FM272100 29010KT P6SM VCTS BKN100CB=



000
FTUS45 KBYZ 270523
TAFSHR
TAF
KSHR 270523Z 2706/2806 26010KT P6SM BKN120
     FM270900 28007KT P6SM SCT100
     FM272100 32010KT P6SM VCTS SCT070CB BKN100=



000
FTUS45 KBYZ 270523
TAFLVM
TAF
KLVM 270523Z 2706/2806 21015G26KT P6SM BKN100
     FM270800 27010KT P6SM SCT100
     FM272000 25012KT P6SM VCTS SCT070CB BKN100
     FM280300 25010KT P6SM BKN100=



000
FTUS45 KBYZ 270523
TAFBIL
TAF
KBIL 270523Z 2706/2806 24013KT P6SM BKN150
     FM270800 25010KT P6SM SCT100
     FM271500 25008KT P6SM SCT100
     FM272100 29010KT P6SM VCTS BKN100CB=



000
FTUS45 KBYZ 270523
TAFSHR
TAF
KSHR 270523Z 2706/2806 26010KT P6SM BKN120
     FM270900 28007KT P6SM SCT100
     FM272100 32010KT P6SM VCTS SCT070CB BKN100=



000
FTUS45 KBYZ 270523
TAFLVM
TAF
KLVM 270523Z 2706/2806 21015G26KT P6SM BKN100
     FM270800 27010KT P6SM SCT100
     FM272000 25012KT P6SM VCTS SCT070CB BKN100
     FM280300 25010KT P6SM BKN100=



000
FTUS45 KBYZ 270523
TAFMLS
TAF
KMLS 270523Z 2706/2806 05009KT P6SM BKN120
     FM270800 10008KT P6SM BKN100
     FM271500 18008KT P6SM SCT100
     FM272200 05008KT P6SM VCTS BKN100CB=



000
FTUS45 KBYZ 262320
TAFBIL
TAF
KBIL 262320Z 2700/2724 VRB05KT P6SM SCT200
     FM271400 25010KT P6SM VCTS SCT100CB
     FM271900 29010KT P6SM VCTS SCT100CB
     FM272300 26010KT P6SM VCSH SCT100=



000
FTUS45 KBYZ 262320
TAFMLS
TAF
KMLS 262320Z 2700/2724 11008KT P6SM SCT250
     FM270600 06010KT P6SM VCSH FEW100 BKN250
     FM271200 VRB05KT P6SM FEW050 SCT200
     FM272300 33008KT P6SM VCTS SCT050CB BKN120=



000
FTUS45 KBYZ 262320
TAFLVM
TAF
KLVM 262320Z 2700/2724 31011KT P6SM SKC
     FM270200 VRB06KT P6SM SCT200
     FM270600 21011KT P6SM VCTS SCT100CB
     FM271500 23011KT P6SM VCTS SCT070CB BKN100=



000
FTUS45 KBYZ 262320
TAFLVM
TAF
KLVM 262320Z 2700/2724 31011KT P6SM SKC
     FM270200 VRB06KT P6SM SCT200
     FM270600 21011KT P6SM VCTS SCT100CB
     FM271500 23011KT P6SM VCTS SCT070CB BKN100=



000
FTUS45 KBYZ 262320
TAFBIL
TAF
KBIL 262320Z 2700/2724 VRB05KT P6SM SCT200
     FM271400 25010KT P6SM VCTS SCT100CB
     FM271900 29010KT P6SM VCTS SCT100CB
     FM272300 26010KT P6SM VCSH SCT100=



000
FTUS45 KBYZ 262320
TAFSHR
TAF
KSHR 262320Z 2700/2724 VRB06G12KT P6SM VCTS SCT110CB BKN150
     FM270400 25010KT P6SM VCSH BKN170
     FM271400 20007KT P6SM BKN170
     FM271700 32010KT P6SM VCTS SCT070CB BKN120=



000
FTUS45 KBYZ 262320
TAFSHR
TAF
KSHR 262320Z 2700/2724 VRB06G12KT P6SM VCTS SCT110CB BKN150
     FM270400 25010KT P6SM VCSH BKN170
     FM271400 20007KT P6SM BKN170
     FM271700 32010KT P6SM VCTS SCT070CB BKN120=



000
FTUS45 KBYZ 262320
TAFMLS
TAF
KMLS 262320Z 2700/2724 11008KT P6SM SCT250
     FM270600 06010KT P6SM VCSH FEW100 BKN250
     FM271200 VRB05KT P6SM FEW050 SCT200
     FM272300 33008KT P6SM VCTS SCT050CB BKN120=



000
FTUS45 KBYZ 261720
TAFMLS
TAF
KMLS 261720Z 2618/2718 07011KT P6SM SKC
     FM271500 VRB05KT P6SM SKC=



000
FTUS45 KBYZ 261720
TAFLVM
TAF
KLVM 261720Z 2618/2718 31011KT P6SM SKC
     FM270200 VRB06KT P6SM SCT200
     FM271500 23011KT P6SM VCSH SCT050=



000
FTUS45 KBYZ 261720
TAFMLS
TAF
KMLS 261720Z 2618/2718 07011KT P6SM SKC
     FM271500 VRB05KT P6SM SKC=



000
FTUS45 KBYZ 261720
TAFBIL
TAF
KBIL 261720Z 2618/2718 VRB05KT P6SM SCT200
     FM271500 25010KT P6SM SCT200=



000
FTUS45 KBYZ 261720
TAFSHR
TAF
KSHR 261720Z 2618/2718 VRB06G12KT P6SM VCTS SCT110CB BKN150
     FM270300 25010KT P6SM VCSH BKN170
     FM271200 20007KT P6SM BKN170=



000
FTUS45 KBYZ 261720
TAFBIL
TAF
KBIL 261720Z 2618/2718 VRB05KT P6SM SCT200
     FM271500 25010KT P6SM SCT200=



000
FTUS45 KBYZ 261720
TAFLVM
TAF
KLVM 261720Z 2618/2718 31011KT P6SM SKC
     FM270200 VRB06KT P6SM SCT200
     FM271500 23011KT P6SM VCSH SCT050=



000
FTUS45 KBYZ 261720
TAFSHR
TAF
KSHR 261720Z 2618/2718 VRB06G12KT P6SM VCTS SCT110CB BKN150
     FM270300 25010KT P6SM VCSH BKN170
     FM271200 20007KT P6SM BKN170=



000
FTUS45 KBYZ 261720
TAFMLS
TAF
KMLS 261720Z 2618/2718 07011KT P6SM SKC
     FM271500 VRB05KT P6SM SKC=



000
FTUS45 KBYZ 261720
TAFBIL
TAF
KBIL 261720Z 2618/2718 VRB05KT P6SM SCT200
     FM271500 25010KT P6SM SCT200=



000
FTUS45 KBYZ 261720
TAFLVM
TAF
KLVM 261720Z 2618/2718 31011KT P6SM SKC
     FM270200 VRB06KT P6SM SCT200
     FM271500 23011KT P6SM VCSH SCT050=



000
FTUS45 KBYZ 261720
TAFMLS
TAF
KMLS 261720Z 2618/2718 07011KT P6SM SKC
     FM271500 VRB05KT P6SM SKC=



000
FTUS45 KBYZ 261720
TAFBIL
TAF
KBIL 261720Z 2618/2718 VRB05KT P6SM SCT200
     FM271500 25010KT P6SM SCT200=



000
FTUS45 KBYZ 261720
TAFLVM
TAF
KLVM 261720Z 2618/2718 31011KT P6SM SKC
     FM270200 VRB06KT P6SM SCT200
     FM271500 23011KT P6SM VCSH SCT050=



000
FTUS45 KBYZ 261720
TAFSHR
TAF
KSHR 261720Z 2618/2718 VRB06G12KT P6SM VCTS SCT110CB BKN150
     FM270300 25010KT P6SM VCSH BKN170
     FM271200 20007KT P6SM BKN170=



000
FTUS45 KBYZ 261720
TAFSHR
TAF
KSHR 261720Z 2618/2718 VRB06G12KT P6SM VCTS SCT110CB BKN150
     FM270300 25010KT P6SM VCSH BKN170
     FM271200 20007KT P6SM BKN170=



000
FTUS45 KBYZ 261124
TAFSHR
TAF
KSHR 261124Z 2612/2712 VRB04KT P6SM FEW120 SCT200
     FM261800 35010KT P6SM BKN120
     FM270000 32008KT P6SM VCTS SCT100CB BKN150
     FM270700 26005KT P6SM BKN100=



000
FTUS45 KBYZ 261124
TAFMLS
TAF
KMLS 261124Z 2612/2712 05007KT P6SM VCSH SCT150
     FM261700 10013KT P6SM SCT150
     FM270600 16005KT P6SM VCTS SCT120CB BKN200
     FM271000 27005KT P6SM SCT200=



000
FTUS45 KBYZ 261124
TAFMLS
TAF
KMLS 261124Z 2612/2712 05007KT P6SM VCSH SCT150
     FM261700 10013KT P6SM SCT150
     FM270600 16005KT P6SM VCTS SCT120CB BKN200
     FM271000 27005KT P6SM SCT200=



000
FTUS45 KBYZ 261124
TAFBIL
TAF
KBIL 261124Z 2612/2712 VRB05KT P6SM SCT150
     FM261800 32008KT P6SM FEW200
     FM270200 VRB05KT P6SM VCTS FEW120CB BKN200
     FM270600 25005KT P6SM FEW120 SCT200=



000
FTUS45 KBYZ 261124
TAFBIL
TAF
KBIL 261124Z 2612/2712 VRB05KT P6SM SCT150
     FM261800 32008KT P6SM FEW200
     FM270200 VRB05KT P6SM VCTS FEW120CB BKN200
     FM270600 25005KT P6SM FEW120 SCT200=



000
FTUS45 KBYZ 261124
TAFLVM
TAF
KLVM 261124Z 2612/2712 23009KT P6SM SCT200
     FM262100 21009KT P6SM VCTS FEW120CB SCT200=



000
FTUS45 KBYZ 261124
TAFBIL
TAF
KBIL 261124Z 2612/2712 VRB05KT P6SM SCT150
     FM261800 32008KT P6SM FEW200
     FM270200 VRB05KT P6SM VCTS FEW120CB BKN200
     FM270600 25005KT P6SM FEW120 SCT200=



000
FTUS45 KBYZ 261124
TAFLVM
TAF
KLVM 261124Z 2612/2712 23009KT P6SM SCT200
     FM262100 21009KT P6SM VCTS FEW120CB SCT200=



000
FTUS45 KBYZ 261124
TAFSHR
TAF
KSHR 261124Z 2612/2712 VRB04KT P6SM FEW120 SCT200
     FM261800 35010KT P6SM BKN120
     FM270000 32008KT P6SM VCTS SCT100CB BKN150
     FM270700 26005KT P6SM BKN100=



000
FTUS45 KBYZ 261124
TAFBIL
TAF
KBIL 261124Z 2612/2712 VRB05KT P6SM SCT150
     FM261800 32008KT P6SM FEW200
     FM270200 VRB05KT P6SM VCTS FEW120CB BKN200
     FM270600 25005KT P6SM FEW120 SCT200=



000
FTUS45 KBYZ 261124
TAFMLS
TAF
KMLS 261124Z 2612/2712 05007KT P6SM VCSH SCT150
     FM261700 10013KT P6SM SCT150
     FM270600 16005KT P6SM VCTS SCT120CB BKN200
     FM271000 27005KT P6SM SCT200=



000
FTUS45 KBYZ 261124
TAFSHR
TAF
KSHR 261124Z 2612/2712 VRB04KT P6SM FEW120 SCT200
     FM261800 35010KT P6SM BKN120
     FM270000 32008KT P6SM VCTS SCT100CB BKN150
     FM270700 26005KT P6SM BKN100=



000
FTUS45 KBYZ 261124
TAFMLS
TAF
KMLS 261124Z 2612/2712 05007KT P6SM VCSH SCT150
     FM261700 10013KT P6SM SCT150
     FM270600 16005KT P6SM VCTS SCT120CB BKN200
     FM271000 27005KT P6SM SCT200=



000
FTUS45 KBYZ 261124
TAFSHR
TAF
KSHR 261124Z 2612/2712 VRB04KT P6SM FEW120 SCT200
     FM261800 35010KT P6SM BKN120
     FM270000 32008KT P6SM VCTS SCT100CB BKN150
     FM270700 26005KT P6SM BKN100=



000
FTUS45 KBYZ 261124
TAFLVM
TAF
KLVM 261124Z 2612/2712 23009KT P6SM SCT200
     FM262100 21009KT P6SM VCTS FEW120CB SCT200=



000
FTUS45 KBYZ 261124
TAFLVM
TAF
KLVM 261124Z 2612/2712 23009KT P6SM SCT200
     FM262100 21009KT P6SM VCTS FEW120CB SCT200=



    US Dept of Commerce
    National Oceanic and Atmospheric Administration
    National Weather Service
    1325 East West Highway
    Silver Spring, MD 20910
    Page Author: NWS Internet Services Team
Disclaimer
Information Quality
Credits
Glossary
Privacy Policy
Freedom of Information Act (FOIA)
About Us
Career Opportunities